Melvan — FGG8116 — position and weather

sailwx.info

Track history (hours):
 
Tides and Currents Weather Stations Pressure Air Temp Water Temp Dewpoint Dewpoint Depression Visibility Wind Speed Wind Dir Waves Ship Positions

Melvan

Last reported at 2017-Nov-18 06:30 UTC. Time now 2017-Nov-18 06:58 UTC.
Position N 47°24' W 002°57'.

Length 32 m; draft 1.6 m.

Type: Passenger vessel. MMSI: 227051790.

Date/timePositionNaut miles runAvg speedWind from/ knotsBaromVisibWave heightAir tempDewpointWater temp
2017-Nov-18 06:30N 47°24' W 002°57'4 9.0
2017-Nov-18 06:00N 47°21' W 002°53'0 0.0
2017-Nov-17 19:56N 47°21' W 002°53'3 7.0
2017-Nov-17 19:30N 47°23' W 002°55'3 5.2
2017-Nov-17 19:00N 47°24' W 002°58'714.1
2017-Nov-17 18:31N 47°28' W 003°07'1 1.0
2017-Nov-17 18:00N 47°29' W 003°07'0 0.0
2017-Nov-17 17:31N 47°29' W 003°07'4 7.5
2017-Nov-17 17:00N 47°26' W 003°03'5 9.3
2017-Nov-17 16:31N 47°24' W 002°57'4 8.9
2017-Nov-17 16:00N 47°21' W 002°53'0 0.0
2017-Nov-17 15:30N 47°21' W 002°53'4 9.0
2017-Nov-17 15:01N 47°24' W 002°57'4 8.9
2017-Nov-17 14:30N 47°21' W 002°53'0 0.0
2017-Nov-17 10:02N 47°21' W 002°53'0 0.7
2017-Nov-17 10:00N 47°21' W 002°53'4 8.5
2017-Nov-17 09:31N 47°24' W 002°56'1 2.6
2017-Nov-17 09:00N 47°24' W 002°58'714.6
2017-Nov-17 08:30N 47°28' W 003°07'0 0.4
2017-Nov-17 08:00N 47°29' W 003°07'3 6.3
2017-Nov-17 07:30N 47°27' W 003°04'510.6
2017-Nov-17 07:00N 47°24' W 002°57'4 8.2
2017-Nov-17 06:31N 47°21' W 002°53'0 0.9
2017-Nov-17 06:01N 47°21' W 002°53'0 0.0
2017-Nov-16 17:21N 47°21' W 002°53'2 4.6
2017-Nov-16 17:00N 47°22' W 002°54'3 6.9
2017-Nov-16 16:31N 47°24' W 002°58'714.9
2017-Nov-16 16:01N 47°28' W 003°07'1 1.1
2017-Nov-16 15:30N 47°29' W 003°07'3 6.9
2017-Nov-16 15:01N 47°27' W 003°03'5 9.9
2017-Nov-16 14:30N 47°24' W 002°57'4 8.9
2017-Nov-16 14:00N 47°21' W 002°53'0 0.1
2017-Nov-16 13:30N 47°21' W 002°53'0 0.0
2017-Nov-16 09:55N 47°21' W 002°53'2 6.0
2017-Nov-16 09:30N 47°23' W 002°54'4 8.0
2017-Nov-16 09:00N 47°25' W 002°59'612.6
2017-Nov-16 08:30N 47°28' W 003°07'0 0.6
2017-Nov-16 08:00N 47°29' W 003°07'2 4.3
2017-Nov-16 07:30N 47°27' W 003°05'612.5
2017-Nov-16 07:00N 47°24' W 002°57'4 8.6
2017-Nov-16 06:30N 47°21' W 002°53'0 0.4
2017-Nov-16 06:00N 47°21' W 002°53'0 0.0
2017-Nov-15 17:24N 47°21' W 002°53'3 7.2
2017-Nov-15 17:01N 47°23' W 002°55'2 3.5
2017-Nov-15 16:31N 47°24' W 002°57'713.9
2017-Nov-15 16:01N 47°28' W 003°06'2 3.0
2017-Nov-15 15:30N 47°29' W 003°07'3 6.3
2017-Nov-15 15:00N 47°27' W 003°04'510.6
2017-Nov-15 14:31N 47°24' W 002°57'4 8.9
2017-Nov-15 14:00N 47°21' W 002°53'0 0.0
2017-Nov-15 13:31N 47°21' W 002°53'0 0.0
2017-Nov-15 09:52N 47°21' W 002°53'2 6.4
2017-Nov-15 09:31N 47°23' W 002°54'3 6.4
2017-Nov-15 09:00N 47°24' W 002°58'714.9
2017-Nov-15 08:31N 47°29' W 003°07'0 0.1
2017-Nov-15 08:01N 47°29' W 003°07'2 3.8
2017-Nov-15 07:31N 47°28' W 003°05'713.0
2017-Nov-15 07:00N 47°24' W 002°57'4 8.1
2017-Nov-15 06:31N 47°21' W 002°53'0 0.9
2017-Nov-15 06:00N 47°21' W 002°53'0 0.0
2017-Nov-14 17:16N 47°21' W 002°53'1 5.3
2017-Nov-14 17:00N 47°22' W 002°54'3 6.1
2017-Nov-14 16:31N 47°24' W 002°57'714.4
2017-Nov-14 16:00N 47°28' W 003°06'1 2.6
2017-Nov-14 15:30N 47°29' W 003°07'2 5.0
2017-Nov-14 15:01N 47°27' W 003°05'611.7
2017-Nov-14 14:30N 47°24' W 002°57'4 9.1
2017-Nov-14 14:01N 47°21' W 002°53'0 0.0
2017-Nov-14 13:30N 47°21' W 002°53'0 0.0
2017-Nov-14 09:45N 47°21' W 002°53'1 3.2
2017-Nov-14 09:30N 47°21' W 002°53'4 7.5
2017-Nov-14 09:00N 47°24' W 002°57'815.4
2017-Nov-14 08:30N 47°28' W 003°07'1 1.8
2017-Nov-14 08:00N 47°29' W 003°07'2 4.1
2017-Nov-14 07:30N 47°27' W 003°05'612.8
2017-Nov-14 07:00N 47°24' W 002°57'4 8.1
2017-Nov-14 06:30N 47°21' W 002°53'0 0.8
2017-Nov-14 06:00N 47°21' W 002°53'0 0.0
2017-Nov-12 18:55N 47°21' W 002°53'4 9.1
2017-Nov-12 18:30N 47°24' W 002°56'5 9.6
2017-Nov-12 18:00N 47°26' W 003°02'4 9.0
2017-Nov-12 17:31N 47°29' W 003°07'4 8.2
2017-Nov-12 17:00N 47°26' W 003°02'4 8.5
2017-Nov-12 16:30N 47°24' W 002°57'4 9.0
2017-Nov-12 16:00N 47°21' W 002°53'0 0.1
2017-Nov-12 15:30N 47°21' W 002°53'0 0.0
2017-Nov-12 10:17N 47°21' W 002°53'2 7.5
2017-Nov-12 10:00N 47°22' W 002°54'4 8.4
2017-Nov-12 09:30N 47°25' W 002°59'713.5
2017-Nov-12 09:00N 47°29' W 003°07'2 3.0
2017-Nov-12 08:30N 47°28' W 003°06'714.1
2017-Nov-12 08:01N 47°24' W 002°57'4 7.4
2017-Nov-12 07:30N 47°21' W 002°53'1 1.4
2017-Nov-12 07:00N 47°21' W 002°53'0 0.0
2017-Nov-11 18:56N 47°21' W 002°53'4 8.9
2017-Nov-11 18:31N 47°24' W 002°56'4 8.5
2017-Nov-11 18:00N 47°26' W 003°01'510.1
2017-Nov-11 17:30N 47°29' W 003°07'4 8.6
2017-Nov-11 17:00N 47°26' W 003°02'4 8.4
2017-Nov-11 16:30N 47°24' W 002°57'4 8.7
2017-Nov-11 16:00N 47°21' W 002°53'0 0.1
2017-Nov-11 15:30N 47°21' W 002°53'0 0.0
2017-Nov-11 10:18N 47°21' W 002°53'2 7.7
2017-Nov-11 10:00N 47°23' W 002°54'4 8.8
2017-Nov-11 09:30N 47°25' W 002°60'612.9
2017-Nov-11 09:00N 47°29' W 003°07'2 3.1
2017-Nov-11 08:30N 47°28' W 003°06'713.9
2017-Nov-11 08:00N 47°24' W 002°57'4 7.2
2017-Nov-11 07:30N 47°21' W 002°53'1 1.7
2017-Nov-11 07:00N 47°21' W 002°53'0 0.0
2017-Nov-10 19:45N 47°21' W 002°53'0 0.1
2017-Nov-10 19:31N 47°21' W 002°53'4 8.9
2017-Nov-10 19:00N 47°24' W 002°57'611.9
2017-Nov-10 18:31N 47°27' W 003°05'2 4.9
2017-Nov-10 18:00N 47°29' W 003°07'0 0.0
2017-Nov-10 17:30N 47°29' W 003°07'5 9.1
2017-Nov-10 17:00N 47°26' W 003°02'4 7.7
2017-Nov-10 16:31N 47°24' W 002°57'4 8.9
2017-Nov-10 16:00N 47°21' W 002°53'2 3.1
2017-Nov-10 15:30N 47°22' W 002°54'3 6.1
2017-Nov-10 15:00N 47°24' W 002°57'4 8.9
2017-Nov-10 14:31N 47°21' W 002°53'0 0.0
2017-Nov-10 10:05N 47°21' W 002°53'0 0.3
2017-Nov-10 10:00N 47°21' W 002°53'4 8.8
2017-Nov-10 09:31N 47°24' W 002°57'2 4.0
2017-Nov-10 09:00N 47°25' W 002°59'713.0
2017-Nov-10 08:30N 47°29' W 003°07'0 0.0
2017-Nov-10 08:00N 47°29' W 003°07'2 3.6
2017-Nov-10 07:31N 47°28' W 003°05'713.3
2017-Nov-10 07:00N 47°24' W 002°57'4 8.3
2017-Nov-10 06:30N 47°21' W 002°53'0 0.7
2017-Nov-10 06:01N 47°21' W 002°53'0 0.0
2017-Nov-09 17:20N 47°21' W 002°53'2 5.4
2017-Nov-09 17:01N 47°22' W 002°54'4 7.4
2017-Nov-09 16:30N 47°24' W 002°58'714.9
2017-Nov-09 16:01N 47°29' W 003°07'0 0.0
2017-Nov-09 15:31N 47°29' W 003°07'510.8
2017-Nov-09 15:00N 47°26' W 003°01'3 6.1
2017-Nov-09 14:30N 47°24' W 002°57'4 1.0
2017-Nov-09 10:07N 47°21' W 002°53'0 0.0
2017-Nov-09 10:01N 47°21' W 002°53'3 6.8
2017-Nov-09 09:30N 47°23' W 002°55'3 5.5
2017-Nov-09 09:00N 47°25' W 002°59'713.9
2017-Nov-09 08:30N 47°29' W 003°07'0 0.0
2017-Nov-09 08:00N 47°29' W 003°07'2 3.6
2017-Nov-09 07:31N 47°28' W 003°05'713.2
2017-Nov-09 07:01N 47°24' W 002°57'4 8.0
2017-Nov-09 06:30N 47°21' W 002°53'1 0.0
2017-Nov-08 17:29N 47°21' W 002°53'4 8.1
2017-Nov-08 17:00N 47°24' W 002°56'3 6.2
2017-Nov-08 16:31N 47°25' W 002°60'612.2
2017-Nov-08 16:00N 47°29' W 003°07'0 0.0
2017-Nov-08 15:30N 47°29' W 003°07'510.5
2017-Nov-08 15:00N 47°26' W 003°01'3 6.3
2017-Nov-08 14:30N 47°24' W 002°57'4 0.9
2017-Nov-08 09:45N 47°21' W 002°53'2 8.8
2017-Nov-08 09:31N 47°23' W 002°54'3 5.7
2017-Nov-08 09:00N 47°24' W 002°58'714.8
2017-Nov-08 08:30N 47°28' W 003°07'1 1.5
2017-Nov-08 08:00N 47°29' W 003°07'2 4.3
2017-Nov-08 07:31N 47°27' W 003°05'612.5
2017-Nov-08 07:00N 47°24' W 002°57'4 8.8
2017-Nov-08 06:30N 47°21' W 002°52'  
Track history (hours):
 
Tides and Currents Weather Stations Pressure Air Temp Water Temp Dewpoint Dewpoint Depression Visibility Wind Speed Wind Dir Waves Ship Positions

Melvan

Last reported at 2017-Nov-18 06:30 UTC. Time now 2017-Nov-18 06:58 UTC.
Position N 47°24' W 002°57'.

Length 32 m; draft 1.6 m.

Type: Passenger vessel. MMSI: 227051790.

Date/timePositionNaut miles runAvg speedWind from/ knotsBaromVisibWave heightAir tempDewpointWater temp
2017-Nov-18 06:30N 47°24' W 002°57'4 9.0
2017-Nov-18 06:00N 47°21' W 002°53'0 0.0
2017-Nov-17 19:56N 47°21' W 002°53'3 7.0
2017-Nov-17 19:30N 47°23' W 002°55'3 5.2
2017-Nov-17 19:00N 47°24' W 002°58'714.1
2017-Nov-17 18:31N 47°28' W 003°07'1 1.0
2017-Nov-17 18:00N 47°29' W 003°07'0 0.0
2017-Nov-17 17:31N 47°29' W 003°07'4 7.5
2017-Nov-17 17:00N 47°26' W 003°03'5 9.3
2017-Nov-17 16:31N 47°24' W 002°57'4 8.9
2017-Nov-17 16:00N 47°21' W 002°53'0 0.0
2017-Nov-17 15:30N 47°21' W 002°53'4 9.0
2017-Nov-17 15:01N 47°24' W 002°57'4 8.9
2017-Nov-17 14:30N 47°21' W 002°53'0 0.0
2017-Nov-17 10:02N 47°21' W 002°53'0 0.7
2017-Nov-17 10:00N 47°21' W 002°53'4 8.5
2017-Nov-17 09:31N 47°24' W 002°56'1 2.6
2017-Nov-17 09:00N 47°24' W 002°58'714.6
2017-Nov-17 08:30N 47°28' W 003°07'0 0.4
2017-Nov-17 08:00N 47°29' W 003°07'3 6.3
2017-Nov-17 07:30N 47°27' W 003°04'510.6
2017-Nov-17 07:00N 47°24' W 002°57'4 8.2
2017-Nov-17 06:31N 47°21' W 002°53'0 0.9
2017-Nov-17 06:01N 47°21' W 002°53'0 0.0
2017-Nov-16 17:21N 47°21' W 002°53'2 4.6
2017-Nov-16 17:00N 47°22' W 002°54'3 6.9
2017-Nov-16 16:31N 47°24' W 002°58'714.9
2017-Nov-16 16:01N 47°28' W 003°07'1 1.1
2017-Nov-16 15:30N 47°29' W 003°07'3 6.9
2017-Nov-16 15:01N 47°27' W 003°03'5 9.9
2017-Nov-16 14:30N 47°24' W 002°57'4 8.9
2017-Nov-16 14:00N 47°21' W 002°53'0 0.1
2017-Nov-16 13:30N 47°21' W 002°53'0 0.0
2017-Nov-16 09:55N 47°21' W 002°53'2 6.0
2017-Nov-16 09:30N 47°23' W 002°54'4 8.0
2017-Nov-16 09:00N 47°25' W 002°59'612.6
2017-Nov-16 08:30N 47°28' W 003°07'0 0.6
2017-Nov-16 08:00N 47°29' W 003°07'2 4.3
2017-Nov-16 07:30N 47°27' W 003°05'612.5
2017-Nov-16 07:00N 47°24' W 002°57'4 8.6
2017-Nov-16 06:30N 47°21' W 002°53'0 0.4
2017-Nov-16 06:00N 47°21' W 002°53'0 0.0
2017-Nov-15 17:24N 47°21' W 002°53'3 7.2
2017-Nov-15 17:01N 47°23' W 002°55'2 3.5
2017-Nov-15 16:31N 47°24' W 002°57'713.9
2017-Nov-15 16:01N 47°28' W 003°06'2 3.0
2017-Nov-15 15:30N 47°29' W 003°07'3 6.3
2017-Nov-15 15:00N 47°27' W 003°04'510.6
2017-Nov-15 14:31N 47°24' W 002°57'4 8.9
2017-Nov-15 14:00N 47°21' W 002°53'0 0.0
2017-Nov-15 13:31N 47°21' W 002°53'0 0.0
2017-Nov-15 09:52N 47°21' W 002°53'2 6.4
2017-Nov-15 09:31N 47°23' W 002°54'3 6.4
2017-Nov-15 09:00N 47°24' W 002°58'714.9
2017-Nov-15 08:31N 47°29' W 003°07'0 0.1
2017-Nov-15 08:01N 47°29' W 003°07'2 3.8
2017-Nov-15 07:31N 47°28' W 003°05'713.0
2017-Nov-15 07:00N 47°24' W 002°57'4 8.1
2017-Nov-15 06:31N 47°21' W 002°53'0 0.9
2017-Nov-15 06:00N 47°21' W 002°53'0 0.0
2017-Nov-14 17:16N 47°21' W 002°53'1 5.3
2017-Nov-14 17:00N 47°22' W 002°54'3 6.1
2017-Nov-14 16:31N 47°24' W 002°57'714.4
2017-Nov-14 16:00N 47°28' W 003°06'1 2.6
2017-Nov-14 15:30N 47°29' W 003°07'2 5.0
2017-Nov-14 15:01N 47°27' W 003°05'611.7
2017-Nov-14 14:30N 47°24' W 002°57'4 9.1
2017-Nov-14 14:01N 47°21' W 002°53'0 0.0
2017-Nov-14 13:30N 47°21' W 002°53'0 0.0
2017-Nov-14 09:45N 47°21' W 002°53'1 3.2
2017-Nov-14 09:30N 47°21' W 002°53'4 7.5
2017-Nov-14 09:00N 47°24' W 002°57'815.4
2017-Nov-14 08:30N 47°28' W 003°07'1 1.8
2017-Nov-14 08:00N 47°29' W 003°07'2 4.1
2017-Nov-14 07:30N 47°27' W 003°05'612.8
2017-Nov-14 07:00N 47°24' W 002°57'4 8.1
2017-Nov-14 06:30N 47°21' W 002°53'0 0.8
2017-Nov-14 06:00N 47°21' W 002°53'0 0.0
2017-Nov-12 18:55N 47°21' W 002°53'4 9.1
2017-Nov-12 18:30N 47°24' W 002°56'5 9.6
2017-Nov-12 18:00N 47°26' W 003°02'4 9.0
2017-Nov-12 17:31N 47°29' W 003°07'4 8.2
2017-Nov-12 17:00N 47°26' W 003°02'4 8.5
2017-Nov-12 16:30N 47°24' W 002°57'4 9.0
2017-Nov-12 16:00N 47°21' W 002°53'0 0.1
2017-Nov-12 15:30N 47°21' W 002°53'0 0.0
2017-Nov-12 10:17N 47°21' W 002°53'2 7.5
2017-Nov-12 10:00N 47°22' W 002°54'4 8.4
2017-Nov-12 09:30N 47°25' W 002°59'713.5
2017-Nov-12 09:00N 47°29' W 003°07'2 3.0
2017-Nov-12 08:30N 47°28' W 003°06'714.1
2017-Nov-12 08:01N 47°24' W 002°57'4 7.4
2017-Nov-12 07:30N 47°21' W 002°53'1 1.4
2017-Nov-12 07:00N 47°21' W 002°53'0 0.0
2017-Nov-11 18:56N 47°21' W 002°53'4 8.9
2017-Nov-11 18:31N 47°24' W 002°56'4 8.5
2017-Nov-11 18:00N 47°26' W 003°01'510.1
2017-Nov-11 17:30N 47°29' W 003°07'4 8.6
2017-Nov-11 17:00N 47°26' W 003°02'4 8.4
2017-Nov-11 16:30N 47°24' W 002°57'4 8.7
2017-Nov-11 16:00N 47°21' W 002°53'0 0.1
2017-Nov-11 15:30N 47°21' W 002°53'0 0.0
2017-Nov-11 10:18N 47°21' W 002°53'2 7.7
2017-Nov-11 10:00N 47°23' W 002°54'4 8.8
2017-Nov-11 09:30N 47°25' W 002°60'612.9
2017-Nov-11 09:00N 47°29' W 003°07'2 3.1
2017-Nov-11 08:30N 47°28' W 003°06'713.9
2017-Nov-11 08:00N 47°24' W 002°57'4 7.2
2017-Nov-11 07:30N 47°21' W 002°53'1 1.7
2017-Nov-11 07:00N 47°21' W 002°53'0 0.0
2017-Nov-10 19:45N 47°21' W 002°53'0 0.1
2017-Nov-10 19:31N 47°21' W 002°53'4 8.9
2017-Nov-10 19:00N 47°24' W 002°57'611.9
2017-Nov-10 18:31N 47°27' W 003°05'2 4.9
2017-Nov-10 18:00N 47°29' W 003°07'0 0.0
2017-Nov-10 17:30N 47°29' W 003°07'5 9.1
2017-Nov-10 17:00N 47°26' W 003°02'4 7.7
2017-Nov-10 16:31N 47°24' W 002°57'4 8.9
2017-Nov-10 16:00N 47°21' W 002°53'2 3.1
2017-Nov-10 15:30N 47°22' W 002°54'3 6.1
2017-Nov-10 15:00N 47°24' W 002°57'4 8.9
2017-Nov-10 14:31N 47°21' W 002°53'0 0.0
2017-Nov-10 10:05N 47°21' W 002°53'0 0.3
2017-Nov-10 10:00N 47°21' W 002°53'4 8.8
2017-Nov-10 09:31N 47°24' W 002°57'2 4.0
2017-Nov-10 09:00N 47°25' W 002°59'713.0
2017-Nov-10 08:30N 47°29' W 003°07'0 0.0
2017-Nov-10 08:00N 47°29' W 003°07'2 3.6
2017-Nov-10 07:31N 47°28' W 003°05'713.3
2017-Nov-10 07:00N 47°24' W 002°57'4 8.3
2017-Nov-10 06:30N 47°21' W 002°53'0 0.7
2017-Nov-10 06:01N 47°21' W 002°53'0 0.0
2017-Nov-09 17:20N 47°21' W 002°53'2 5.4
2017-Nov-09 17:01N 47°22' W 002°54'4 7.4
2017-Nov-09 16:30N 47°24' W 002°58'714.9
2017-Nov-09 16:01N 47°29' W 003°07'0 0.0
2017-Nov-09 15:31N 47°29' W 003°07'510.8
2017-Nov-09 15:00N 47°26' W 003°01'3 6.1
2017-Nov-09 14:30N 47°24' W 002°57'4 1.0
2017-Nov-09 10:07N 47°21' W 002°53'0 0.0
2017-Nov-09 10:01N 47°21' W 002°53'3 6.8
2017-Nov-09 09:30N 47°23' W 002°55'3 5.5
2017-Nov-09 09:00N 47°25' W 002°59'713.9
2017-Nov-09 08:30N 47°29' W 003°07'0 0.0
2017-Nov-09 08:00N 47°29' W 003°07'2 3.6
2017-Nov-09 07:31N 47°28' W 003°05'713.2
2017-Nov-09 07:01N 47°24' W 002°57'4 8.0
2017-Nov-09 06:30N 47°21' W 002°53'1 0.0
2017-Nov-08 17:29N 47°21' W 002°53'4 8.1
2017-Nov-08 17:00N 47°24' W 002°56'3 6.2
2017-Nov-08 16:31N 47°25' W 002°60'612.2
2017-Nov-08 16:00N 47°29' W 003°07'0 0.0
2017-Nov-08 15:30N 47°29' W 003°07'510.5
2017-Nov-08 15:00N 47°26' W 003°01'3 6.3
2017-Nov-08 14:30N 47°24' W 002°57'4 0.9
2017-Nov-08 09:45N 47°21' W 002°53'2 8.8
2017-Nov-08 09:31N 47°23' W 002°54'3 5.7
2017-Nov-08 09:00N 47°24' W 002°58'714.8
2017-Nov-08 08:30N 47°28' W 003°07'1 1.5
2017-Nov-08 08:00N 47°29' W 003°07'2 4.3
2017-Nov-08 07:31N 47°27' W 003°05'612.5
2017-Nov-08 07:00N 47°24' W 002°57'4 8.8
2017-Nov-08 06:30N 47°21' W 002°52'  

Dump ship's entire track history